Time;durP1;ratioP1;P1;durP2;ratioP2;P2;SDS_P1;SDS_P2;PMS_P1;PMS_P2;Temp;Humidity;BMP_temperature;BMP_pressure;BME280_temperature;BME280_humidity;BME280_pressure;Samples;Min_cycle;Max_cycle;Signal;HPM_P1;HPM_P2
2022/11/28 00:03:11;;;;;;;;;;;;;;;19.05;39.20;95622.75;10428134;28;1971;-56
2022/11/28 00:08:13;;;;;;;;;;;;;;;19.11;39.02;95615.63;10435297;28;1950;-56
2022/11/28 00:13:13;;;;;;;;;;;;;;;19.04;39.00;95610.66;10436127;28;1968;-55
2022/11/28 00:18:13;;;;;;;;;;;;;;;19.01;39.09;95600.69;10423691;28;1991;-56
2022/11/28 00:23:13;;;;;;;;;;;;;;;19.00;39.05;95593.84;10434336;28;2077;-56
2022/11/28 00:28:14;;;;;;;;;;;;;;;18.99;39.04;95599.38;10436101;28;2009;-54
2022/11/28 00:33:20;;;;;;;;;;;;;;;19.00;39.08;95603.59;10427947;28;1993;-54
2022/11/28 00:38:20;;;;;;;;;;;;;;;18.94;38.99;95597.53;10436635;28;1950;-57
2022/11/28 00:43:21;;;;;;;;;;;;;;;18.92;39.04;95598.88;10442678;28;2025;-55
2022/11/28 00:48:22;;;;;;;;;;;;;;;18.88;38.85;95616.19;10440344;28;2010;-57
2022/11/28 00:53:22;;;;;;;;;;;;;;;18.88;38.86;95593.34;10444264;28;1964;-55
2022/11/28 00:58:22;;;;;;;;;;;;;;;18.85;38.87;95591.28;10433663;28;2072;-56
2022/11/28 01:03:22;;;;;;;;;;;;;;;18.85;38.84;95579.97;10425594;28;1978;-57
2022/11/28 01:08:23;;;;;;;;;;;;;;;18.81;38.79;95569.22;10421335;28;2032;-56
2022/11/28 01:13:24;;;;;;;;;;;;;;;18.79;38.75;95558.19;10428514;28;1967;-56
2022/11/28 01:18:24;;;;;;;;;;;;;;;18.80;38.87;95554.50;10438215;28;1847;-56
2022/11/28 01:23:24;;;;;;;;;;;;;;;18.77;38.72;95556.88;10436515;28;2020;-56
2022/11/28 01:28:28;;;;;;;;;;;;;;;18.73;38.69;95555.84;10434941;28;1892;-55
2022/11/28 01:33:28;;;;;;;;;;;;;;;18.72;38.69;95551.63;10430110;28;1978;-54
2022/11/28 01:38:29;;;;;;;;;;;;;;;18.70;38.68;95546.66;10435990;28;1990;-56
2022/11/28 01:43:29;;;;;;;;;;;;;;;18.68;38.61;95538.25;10430697;28;1949;-55
2022/11/28 01:48:31;;;;;;;;;;;;;;;18.67;38.67;95542.72;10432784;28;2053;-55
2022/11/28 01:53:31;;;;;;;;;;;;;;;18.67;38.58;95531.41;10423356;28;1967;-54
2022/11/28 01:58:32;;;;;;;;;;;;;;;18.62;38.43;95524.38;10421146;28;1895;-56
2022/11/28 02:03:40;;;;;;;;;;;;;;;18.65;38.49;95523.03;10417446;28;2023;-57
2022/11/28 02:08:40;;;;;;;;;;;;;;;18.62;38.52;95563.75;10417466;28;2098;-56
2022/11/28 02:13:47;;;;;;;;;;;;;;;18.61;38.52;95564.78;10428443;28;1918;-57
2022/11/28 02:18:58;;;;;;;;;;;;;;;18.57;38.53;95558.50;10438761;28;2015;-57
2022/11/28 02:24:17;;;;;;;;;;;;;;;18.57;38.61;95542.75;10445316;28;2066;-56
2022/11/28 02:29:50;;;;;;;;;;;;;;;18.55;38.48;95546.69;10427682;28;1962;-56
2022/11/28 02:35:09;;;;;;;;;;;;;;;18.54;38.56;95532.00;10411627;28;2007;-57
2022/11/28 02:40:15;;;;;;;;;;;;;;;18.49;38.42;95511.00;10434708;28;1965;-54
2022/11/28 02:45:27;;;;;;;;;;;;;;;18.49;38.48;95516.25;10433002;28;2015;-56
2022/11/28 02:50:29;;;;;;;;;;;;;;;18.46;38.38;95508.91;10438860;28;2060;-55
2022/11/28 02:55:29;;;;;;;;;;;;;;;18.45;38.43;95488.97;10438528;28;2144;-57
2022/11/28 03:00:30;;;;;;;;;;;;;;;18.44;38.34;95497.91;10442271;28;1965;-55
2022/11/28 03:05:33;;;;;;;;;;;;;;;18.43;38.54;95481.34;10437773;28;2084;-56
2022/11/28 03:10:43;;;;;;;;;;;;;;;18.39;38.38;95490.00;10438928;28;1969;-55
2022/11/28 03:15:49;;;;;;;;;;;;;;;18.38;38.64;95501.56;10437784;28;1950;-57
2022/11/28 03:21:08;;;;;;;;;;;;;;;18.36;38.62;95503.66;10436560;28;2025;-57
2022/11/28 03:26:08;;;;;;;;;;;;;;;18.38;38.42;95485.81;10430459;28;2089;-56
2022/11/28 03:31:09;;;;;;;;;;;;;;;18.41;38.53;95469.50;10442415;28;2052;-57
2022/11/28 03:36:11;;;;;;;;;;;;;;;18.42;38.32;95478.97;10444743;28;1986;-56
2022/11/28 03:41:13;;;;;;;;;;;;;;;18.46;38.17;95459.84;10455905;28;1993;-55
2022/11/28 03:46:14;;;;;;;;;;;;;;;18.53;38.06;95470.03;10439672;28;2248;-55
2022/11/28 03:51:15;;;;;;;;;;;;;;;18.57;38.11;95457.94;10434094;28;1958;-56
2022/11/28 03:56:28;;;;;;;;;;;;;;;18.60;38.08;95436.44;10431851;28;2027;-54
2022/11/28 04:01:31;;;;;;;;;;;;;;;18.68;37.96;95435.88;10438125;28;1927;-56
2022/11/28 04:06:34;;;;;;;;;;;;;;;18.69;37.83;95430.34;10445411;28;2102;-56
2022/11/28 04:11:40;;;;;;;;;;;;;;;18.69;38.08;95435.59;10418770;28;1946;-57
2022/11/28 04:16:51;;;;;;;;;;;;;;;18.68;37.96;95422.75;10427944;28;2108;-57
2022/11/28 04:22:00;;;;;;;;;;;;;;;18.68;37.94;95422.75;10430137;28;2044;-57
2022/11/28 04:27:01;;;;;;;;;;;;;;;18.72;37.78;95417.72;10434966;28;2054;-56
2022/11/28 04:32:02;;;;;;;;;;;;;;;18.75;37.78;95410.13;10428009;28;1975;-55
2022/11/28 04:37:02;;;;;;;;;;;;;;;18.75;37.80;95430.34;10438469;28;2044;-56
2022/11/28 04:42:02;;;;;;;;;;;;;;;18.78;37.82;95421.91;10436856;28;2205;-57
2022/11/28 04:47:02;;;;;;;;;;;;;;;18.77;37.58;95426.41;10439686;28;1973;-56
2022/11/28 04:52:15;;;;;;;;;;;;;;;18.78;37.73;95424.53;10425787;28;1950;-55
2022/11/28 04:57:31;;;;;;;;;;;;;;;18.78;37.50;95416.66;10428629;28;1930;-56
2022/11/28 05:02:37;;;;;;;;;;;;;;;18.77;37.74;95426.41;10433242;28;1947;-57
2022/11/28 05:07:37;;;;;;;;;;;;;;;18.76;37.46;95385.41;10424205;28;1984;-56
2022/11/28 05:12:37;;;;;;;;;;;;;;;18.73;36.66;95370.22;10433656;28;2053;-54
2022/11/28 05:17:38;;;;;;;;;;;;;;;18.72;36.21;95447.41;10432947;28;1968;-57
2022/11/28 05:22:38;;;;;;;;;;;;;;;18.71;35.49;95466.06;10431641;28;2007;-56
2022/11/28 05:27:38;;;;;;;;;;;;;;;18.74;35.62;95462.88;10429890;28;2089;-56
2022/11/28 05:32:42;;;;;;;;;;;;;;;18.76;35.32;95452.91;10424219;28;1959;-56
2022/11/28 05:37:42;;;;;;;;;;;;;;;18.79;35.63;95450.53;10429349;28;1954;-55
2022/11/28 05:42:43;;;;;;;;;;;;;;;18.81;35.23;95443.19;10437474;28;1930;-56
2022/11/28 05:47:43;;;;;;;;;;;;;;;18.83;34.99;95446.31;10429269;28;2117;-55
2022/11/28 05:52:43;;;;;;;;;;;;;;;18.88;35.10;95448.13;10440973;28;1958;-56
2022/11/28 05:57:43;;;;;;;;;;;;;;;18.89;34.63;95444.44;10418815;28;1897;-57
2022/11/28 06:02:44;;;;;;;;;;;;;;;18.91;34.98;95414.25;10432644;28;2009;-55
2022/11/28 06:07:44;;;;;;;;;;;;;;;18.93;34.79;95433.13;10431483;28;1969;-55
2022/11/28 06:12:45;;;;;;;;;;;;;;;18.95;34.87;95423.16;10433286;28;1971;-53
2022/11/28 06:17:45;;;;;;;;;;;;;;;18.99;34.50;95407.63;10446586;28;1940;-56
2022/11/28 06:22:45;;;;;;;;;;;;;;;19.01;35.40;95400.25;10436704;28;1960;-53
2022/11/28 06:27:46;;;;;;;;;;;;;;;19.05;35.18;95423.09;10439628;28;2124;-53
2022/11/28 06:32:46;;;;;;;;;;;;;;;19.03;34.82;95383.19;10442270;28;1922;-52
2022/11/28 06:37:46;;;;;;;;;;;;;;;19.05;34.74;95409.16;10434696;28;1971;-55
2022/11/28 06:42:49;;;;;;;;;;;;;;;19.05;34.80;95406.53;10442930;28;1962;-55
2022/11/28 06:47:49;;;;;;;;;;;;;;;19.06;34.57;95397.63;10439628;28;2030;-54
2022/11/28 06:52:50;;;;;;;;;;;;;;;19.09;34.60;95387.34;10444948;28;2015;-55
2022/11/28 06:57:50;;;;;;;;;;;;;;;19.09;34.28;95389.16;10447210;28;1883;-55
2022/11/28 07:02:50;;;;;;;;;;;;;;;19.10;34.62;95381.00;10436055;28;2335;-55
2022/11/28 07:07:51;;;;;;;;;;;;;;;19.13;34.57;95392.81;10432414;28;1985;-55
2022/11/28 07:12:55;;;;;;;;;;;;;;;19.14;34.88;95387.31;10434594;28;1988;-55
2022/11/28 07:17:56;;;;;;;;;;;;;;;19.15;34.41;95394.13;10430976;28;2077;-54
2022/11/28 07:22:56;;;;;;;;;;;;;;;19.18;34.63;95390.19;10433287;28;1970;-53
2022/11/28 07:27:56;;;;;;;;;;;;;;;19.18;34.23;95401.47;10426040;28;2030;-54
2022/11/28 07:32:56;;;;;;;;;;;;;;;19.19;34.76;95421.44;10437559;28;1976;-55
2022/11/28 07:37:57;;;;;;;;;;;;;;;19.21;34.32;95413.25;10429066;28;2029;-55
2022/11/28 07:42:57;;;;;;;;;;;;;;;19.24;35.26;95400.38;10432832;28;1947;-57
2022/11/28 07:47:58;;;;;;;;;;;;;;;19.32;34.93;95381.41;10426842;28;1939;-53
2022/11/28 07:52:58;;;;;;;;;;;;;;;19.33;34.78;95371.69;10438363;28;1894;-53
2022/11/28 07:57:58;;;;;;;;;;;;;;;19.36;34.47;95382.47;10433285;28;1965;-52
2022/11/28 08:02:59;;;;;;;;;;;;;;;19.38;34.73;95372.44;10454231;28;1935;-52
2022/11/28 08:07:59;;;;;;;;;;;;;;;19.45;35.43;95359.75;10445548;28;1985;-53
2022/11/28 08:13:00;;;;;;;;;;;;;;;19.45;34.93;95372.16;10446388;28;1667;-54
2022/11/28 08:23:42;;;;;;;;;;;;;;;19.45;35.74;95380.78;10426402;28;2066;-57
2022/11/28 08:28:43;;;;;;;;;;;;;;;19.52;37.00;95395.47;10432164;28;2162;-53
2022/11/28 08:33:43;;;;;;;;;;;;;;;19.49;36.41;95396.81;10430505;28;2104;-56
2022/11/28 08:38:45;;;;;;;;;;;;;;;19.47;36.74;95385.78;10423942;28;2096;-53
2022/11/28 08:43:45;;;;;;;;;;;;;;;19.49;36.48;95379.19;10435956;28;2112;-53
2022/11/28 08:48:46;;;;;;;;;;;;;;;19.59;36.46;95367.03;10434229;28;2357;-55
2022/11/28 08:53:46;;;;;;;;;;;;;;;19.56;36.67;95392.03;10439754;28;2011;-55
2022/11/28 08:58:46;;;;;;;;;;;;;;;19.52;36.68;95379.69;10435769;28;2300;-53
2022/11/28 09:03:47;;;;;;;;;;;;;;;19.52;36.75;95371.81;10448000;28;2067;-53
2022/11/28 09:08:48;;;;;;;;;;;;;;;19.54;36.66;95403.91;10431867;28;2046;-57
2022/11/28 09:13:48;;;;;;;;;;;;;;;19.47;36.63;95393.69;10431839;28;2190;-55
2022/11/28 09:18:48;;;;;;;;;;;;;;;19.44;36.83;95388.97;10436667;28;2161;-53
2022/11/28 09:23:48;;;;;;;;;;;;;;;19.42;36.76;95397.13;10434066;28;2094;-55
2022/11/28 09:28:49;;;;;;;;;;;;;;;19.43;37.19;95390.03;10439955;28;2059;-55
2022/11/28 09:33:49;;;;;;;;;;;;;;;19.44;37.08;95399.47;10429000;28;2056;-54
2022/11/28 09:38:49;;;;;;;;;;;;;;;19.44;36.94;95394.22;10421266;28;2097;-55
2022/11/28 09:43:51;;;;;;;;;;;;;;;19.46;36.56;95392.09;10444360;28;2133;-52
2022/11/28 09:48:52;;;;;;;;;;;;;;;19.48;36.99;95388.16;10446675;28;2060;-54
2022/11/28 09:54:12;;;;;;;;;;;;;;;19.49;36.46;95384.44;10460088;28;2068;-51
2022/11/28 09:59:16;;;;;;;;;;;;;;;19.49;36.93;95396.81;10452939;28;2250;-54
2022/11/28 10:04:26;;;;;;;;;;;;;;;19.49;36.80;95386.31;10451121;28;2148;-54
2022/11/28 10:09:26;;;;;;;;;;;;;;;19.54;36.79;95390.75;10445916;28;2074;-54
2022/11/28 10:14:35;;;;;;;;;;;;;;;19.53;36.84;95381.28;10441750;28;2011;-52
2022/11/28 10:19:43;;;;;;;;;;;;;;;19.55;37.03;95371.28;10434169;28;2237;-54
2022/11/28 10:24:44;;;;;;;;;;;;;;;19.57;36.68;95374.41;10432963;28;2233;-51
2022/11/28 10:30:07;;;;;;;;;;;;;;;19.63;37.22;95378.56;10431188;28;2303;-52
2022/11/28 10:35:20;;;;;;;;;;;;;;;19.70;37.18;95373.78;10441432;28;1966;-53
2022/11/28 10:40:29;;;;;;;;;;;;;;;19.76;37.33;95370.03;10434345;28;2292;-52
2022/11/28 10:45:32;;;;;;;;;;;;;;;19.82;37.08;95366.31;10435985;28;2042;-54
2022/11/28 10:50:47;;;;;;;;;;;;;;;19.85;37.37;95365.72;10419044;28;2031;-55
2022/11/28 10:56:02;;;;;;;;;;;;;;;19.88;37.61;95368.63;10439717;28;2159;-54
2022/11/28 11:01:03;;;;;;;;;;;;;;;19.91;37.65;95362.78;10436879;28;2024;-53
2022/11/28 11:06:03;;;;;;;;;;;;;;;19.93;37.15;95367.75;10429094;28;2122;-54
2022/11/28 11:11:03;;;;;;;;;;;;;;;19.97;37.51;95361.66;10437838;28;2089;-58
2022/11/28 11:16:04;;;;;;;;;;;;;;;20.00;37.59;95369.00;10440526;28;2132;-53
2022/11/28 11:21:13;;;;;;;;;;;;;;;20.02;37.51;95368.72;10435381;28;2232;-54
2022/11/28 11:26:21;;;;;;;;;;;;;;;20.03;37.64;95365.81;10429010;28;2096;-56
2022/11/28 11:31:25;;;;;;;;;;;;;;;20.06;37.59;95375.00;10432776;28;2026;-52
2022/11/28 11:36:27;;;;;;;;;;;;;;;20.07;37.45;95368.69;10433459;28;2050;-54
2022/11/28 11:41:30;;;;;;;;;;;;;;;20.08;37.91;95367.59;10436541;28;2102;-53
2022/11/28 11:46:30;;;;;;;;;;;;;;;20.08;37.70;95362.34;10423157;28;2088;-52
2022/11/28 11:51:30;;;;;;;;;;;;;;;20.10;37.63;95360.22;10430942;28;2041;-55
2022/11/28 11:56:34;;;;;;;;;;;;;;;20.10;37.96;95350.47;10417905;28;1999;-56
2022/11/28 12:01:34;;;;;;;;;;;;;;;20.11;37.86;95343.38;10437397;28;2017;-56
2022/11/28 12:06:39;;;;;;;;;;;;;;;20.10;37.71;95344.44;10424390;28;2038;-53
2022/11/28 12:11:40;;;;;;;;;;;;;;;20.10;37.67;95332.06;10433514;28;2114;-53
2022/11/28 12:16:47;;;;;;;;;;;;;;;20.10;37.68;95345.22;10426015;28;2134;-59
2022/11/28 12:21:50;;;;;;;;;;;;;;;20.13;37.42;95338.63;10430284;28;2117;-58
2022/11/28 12:26:52;;;;;;;;;;;;;;;20.14;37.04;95337.53;10432275;28;2178;-58
2022/11/28 12:32:05;;;;;;;;;;;;;;;20.16;36.27;95343.31;10422970;28;2042;-58
2022/11/28 12:37:08;;;;;;;;;;;;;;;20.19;35.51;95343.59;10432582;28;2143;-59
2022/11/28 12:42:17;;;;;;;;;;;;;;;20.22;34.43;95339.59;10432779;28;2138;-59
2022/11/28 12:47:28;;;;;;;;;;;;;;;20.25;34.21;95334.56;10436879;28;2033;-59
2022/11/28 12:52:41;;;;;;;;;;;;;;;20.22;33.81;95343.00;10447873;28;2139;-58
2022/11/28 12:57:47;;;;;;;;;;;;;;;20.24;33.66;95348.78;10432729;28;2174;-59
2022/11/28 13:03:10;;;;;;;;;;;;;;;20.28;33.64;95343.72;10439071;28;1972;-56
2022/11/28 13:08:21;;;;;;;;;;;;;;;20.31;33.62;95335.28;10437502;28;2055;-59
2022/11/28 13:13:23;;;;;;;;;;;;;;;20.34;33.34;95339.97;10442416;28;2014;-58
2022/11/28 13:18:43;;;;;;;;;;;;;;;20.43;35.21;95335.66;10443548;28;1876;-57
2022/11/28 13:23:43;;;;;;;;;;;;;;;20.49;34.40;95337.16;10431781;28;2041;-58
2022/11/28 13:28:46;;;;;;;;;;;;;;;20.53;34.82;95346.06;10432913;28;1977;-58
2022/11/28 13:33:53;;;;;;;;;;;;;;;20.52;34.24;95344.50;10430075;28;2096;-59
2022/11/28 13:38:59;;;;;;;;;;;;;;;20.52;34.33;95347.16;10425946;28;2074;-59
2022/11/28 13:44:05;;;;;;;;;;;;;;;20.52;34.21;95333.97;10422918;28;2241;-58
2022/11/28 13:49:22;;;;;;;;;;;;;;;20.54;34.36;95339.75;10428760;28;2013;-59
2022/11/28 13:54:23;;;;;;;;;;;;;;;20.53;34.30;95332.91;10435834;28;2170;-59
2022/11/28 13:59:23;;;;;;;;;;;;;;;20.54;34.47;95337.13;10431462;28;2103;-59
2022/11/28 14:04:24;;;;;;;;;;;;;;;20.54;34.30;95333.69;10438702;28;2060;-58
2022/11/28 14:09:31;;;;;;;;;;;;;;;20.54;34.29;95337.13;10430369;28;2002;-59
2022/11/28 14:14:48;;;;;;;;;;;;;;;20.54;34.17;95338.94;10431634;28;2154;-59
2022/11/28 14:19:58;;;;;;;;;;;;;;;20.53;34.05;95337.38;10436624;28;2014;-58
2022/11/28 14:25:04;;;;;;;;;;;;;;;20.53;34.27;95327.63;10439126;28;1982;-58
2022/11/28 14:30:05;;;;;;;;;;;;;;;20.52;34.03;95331.34;10437868;28;1982;-58
2022/11/28 14:35:10;;;;;;;;;;;;;;;20.51;33.86;95324.50;10432923;28;2042;-58
2022/11/28 14:40:39;;;;;;;;;;;;;;;20.51;34.12;95332.41;10425365;28;2070;-58
2022/11/28 14:45:42;;;;;;;;;;;;;;;20.51;34.11;95334.25;10435702;28;2015;-59
2022/11/28 14:50:47;;;;;;;;;;;;;;;20.51;34.19;95336.88;10433173;28;2098;-59
2022/11/28 14:55:47;;;;;;;;;;;;;;;20.52;34.10;95339.25;10438171;28;2166;-59
2022/11/28 15:00:53;;;;;;;;;;;;;;;20.52;33.81;95341.09;10451394;28;2100;-58
2022/11/28 15:05:55;;;;;;;;;;;;;;;20.50;33.74;95333.47;10453029;28;2211;-59
2022/11/28 15:11:14;;;;;;;;;;;;;;;20.52;33.71;95336.63;10438841;28;1952;-58
2022/11/28 15:16:14;;;;;;;;;;;;;;;20.50;33.67;95333.47;10437174;28;2022;-58
2022/11/28 15:21:14;;;;;;;;;;;;;;;20.50;33.67;95330.06;10431533;28;2005;-59
2022/11/28 15:26:41;;;;;;;;;;;;;;;20.49;33.27;95331.91;10434521;28;2065;-57
2022/11/28 15:31:41;;;;;;;;;;;;;;;20.49;33.41;95323.22;10430755;28;2012;-57
2022/11/28 15:36:41;;;;;;;;;;;;;;;20.48;33.11;95330.34;10441914;28;1966;-59
2022/11/28 15:41:42;;;;;;;;;;;;;;;20.49;33.24;95326.63;10431312;28;1997;-58
2022/11/28 15:46:42;;;;;;;;;;;;;;;20.48;33.41;95327.72;10458801;28;2017;-57
2022/11/28 15:51:43;;;;;;;;;;;;;;;20.48;33.21;95321.66;10433751;28;2108;-59
2022/11/28 15:56:56;;;;;;;;;;;;;;;20.49;33.21;95320.56;10433112;28;2049;-59
2022/11/28 16:01:58;;;;;;;;;;;;;;;20.47;33.11;95320.88;10433692;28;1978;-59
2022/11/28 16:06:59;;;;;;;;;;;;;;;20.46;33.05;95323.78;10432624;28;2217;-59
2022/11/28 16:12:00;;;;;;;;;;;;;;;20.46;33.00;95315.88;10418033;28;2426;-59
2022/11/28 16:17:01;;;;;;;;;;;;;;;20.46;33.31;95315.88;10440388;28;1966;-59
2022/11/28 16:22:02;;;;;;;;;;;;;;;20.47;32.86;95318.22;10435531;28;2042;-59
2022/11/28 16:27:03;;;;;;;;;;;;;;;20.47;33.09;95318.22;10435117;28;1977;-59
2022/11/28 16:32:25;;;;;;;;;;;;;;;20.48;33.25;95319.03;10445542;28;2071;-59
2022/11/28 16:37:25;;;;;;;;;;;;;;;20.48;33.26;95313.75;10434897;28;1919;-59
2022/11/28 16:42:26;;;;;;;;;;;;;;;20.51;34.11;95308.69;10429584;28;1931;-59
2022/11/28 16:47:26;;;;;;;;;;;;;;;20.49;33.33;95313.47;10422138;28;2052;-60
2022/11/28 16:52:27;;;;;;;;;;;;;;;20.48;33.00;95322.44;10435589;28;1990;-59
2022/11/28 16:57:43;;;;;;;;;;;;;;;20.47;33.05;95310.34;10437401;28;1906;-60
2022/11/28 17:02:43;;;;;;;;;;;;;;;20.50;33.11;95311.63;10432200;28;2039;-59
2022/11/28 17:07:44;;;;;;;;;;;;;;;20.49;33.03;95305.56;10437564;28;1974;-59
2022/11/28 17:12:44;;;;;;;;;;;;;;;20.47;33.22;95307.69;10428896;28;1985;-59
2022/11/28 17:17:44;;;;;;;;;;;;;;;20.47;33.40;95305.06;10464973;28;1985;-60
2022/11/28 17:22:45;;;;;;;;;;;;;;;20.48;33.07;95304.00;10435744;28;1939;-60
2022/11/28 17:27:46;;;;;;;;;;;;;;;20.48;33.05;95301.38;10428822;28;2171;-58
2022/11/28 17:32:47;;;;;;;;;;;;;;;20.49;32.96;95304.78;10431944;28;1918;-60
2022/11/28 17:37:47;;;;;;;;;;;;;;;20.48;32.78;95309.28;10429424;28;1950;-57
2022/11/28 17:42:47;;;;;;;;;;;;;;;20.48;32.82;95309.28;10423799;28;2061;-58
2022/11/28 17:47:48;;;;;;;;;;;;;;;20.47;33.08;95307.69;10433365;28;1978;-58
2022/11/28 17:52:48;;;;;;;;;;;;;;;20.47;33.07;95310.34;10438408;28;2085;-58
2022/11/28 17:57:48;;;;;;;;;;;;;;;20.48;32.85;95317.19;10433754;28;1966;-58
2022/11/28 18:02:48;;;;;;;;;;;;;;;20.50;32.98;95314.25;10437121;28;2008;-59
2022/11/28 18:07:49;;;;;;;;;;;;;;;20.50;33.62;95325.56;10434540;28;2025;-60
2022/11/28 18:12:50;;;;;;;;;;;;;;;20.72;35.15;95315.28;10429068;28;2112;-55
2022/11/28 18:17:51;;;;;;;;;;;;;;;20.70;34.43;95317.41;10442791;28;2084;-52
2022/11/28 18:22:51;;;;;;;;;;;;;;;20.72;34.37;95320.53;10439300;28;2082;-55
2022/11/28 18:27:52;;;;;;;;;;;;;;;20.67;33.92;95315.31;10441367;28;1954;-54
2022/11/28 18:32:52;;;;;;;;;;;;;;;20.66;34.12;95315.63;10440331;28;1990;-54
2022/11/28 18:37:53;;;;;;;;;;;;;;;20.62;33.96;95315.41;10439155;28;2093;-53
2022/11/28 18:42:53;;;;;;;;;;;;;;;20.62;33.70;95315.41;10441111;28;1973;-51
2022/11/28 18:47:56;;;;;;;;;;;;;;;20.60;34.60;95317.53;10435529;28;2086;-54
2022/11/28 18:52:56;;;;;;;;;;;;;;;20.58;34.33;95313.63;10443330;28;1872;-54
2022/11/28 18:57:56;;;;;;;;;;;;;;;20.55;34.54;95314.16;10436967;28;1952;-52
2022/11/28 19:02:57;;;;;;;;;;;;;;;20.57;34.37;95319.94;10440525;28;2021;-54
2022/11/28 19:07:57;;;;;;;;;;;;;;;20.51;34.32;95324.50;10431018;28;2054;-54
2022/11/28 19:12:57;;;;;;;;;;;;;;;20.47;34.36;95328.75;10430577;28;2099;-53
2022/11/28 19:17:57;;;;;;;;;;;;;;;20.46;34.92;95327.22;10431953;28;3280;-52
2022/11/28 19:22:58;;;;;;;;;;;;;;;20.42;34.68;95331.47;10433018;28;1927;-53
2022/11/28 19:27:58;;;;;;;;;;;;;;;20.40;35.37;95327.53;10431772;28;1976;-56
2022/11/28 19:32:58;;;;;;;;;;;;;;;20.38;35.16;95334.94;10436226;28;1959;-56
2022/11/28 19:37:59;;;;;;;;;;;;;;;20.31;34.76;95335.28;10437400;28;1903;-51
2022/11/28 19:42:59;;;;;;;;;;;;;;;20.27;34.99;95337.69;10434219;28;2021;-56
2022/11/28 19:48:01;;;;;;;;;;;;;;;20.24;34.99;95340.88;10437135;28;2079;-55
2022/11/28 19:53:01;;;;;;;;;;;;;;;20.22;35.40;95339.59;10439067;28;1973;-56
2022/11/28 19:58:01;;;;;;;;;;;;;;;20.20;35.41;95345.13;10432203;28;2275;-55
2022/11/28 20:03:02;;;;;;;;;;;;;;;20.20;36.11;95345.13;10435692;28;1901;-55
2022/11/28 20:08:02;;;;;;;;;;;;;;;20.21;35.84;95341.47;10435479;28;1919;-55
2022/11/28 20:13:02;;;;;;;;;;;;;;;20.24;36.29;95345.34;10430855;28;1886;-54
2022/11/28 20:18:03;;;;;;;;;;;;;;;20.20;36.21;95354.88;10439559;28;1919;-56
2022/11/28 20:23:03;;;;;;;;;;;;;;;20.19;36.38;95355.91;10439296;28;1966;-54
2022/11/28 20:28:03;;;;;;;;;;;;;;;20.19;36.41;95354.13;10436668;28;1910;-54
2022/11/28 20:33:03;;;;;;;;;;;;;;;20.16;35.82;95359.09;10431788;28;1946;-54
2022/11/28 20:38:04;;;;;;;;;;;;;;;20.19;36.87;95359.38;10428300;28;1939;-57
2022/11/28 20:43:04;;;;;;;;;;;;;;;20.21;36.33;95361.72;10435315;28;2044;-53
2022/11/28 20:48:04;;;;;;;;;;;;;;;20.24;37.39;95359.31;10434642;28;1899;-51
2022/11/28 20:53:05;;;;;;;;;;;;;;;20.25;37.71;95358.25;10432705;28;1993;-50
2022/11/28 20:58:05;;;;;;;;;;;;;;;20.22;36.86;95358.81;10430534;28;1970;-52
2022/11/28 21:03:05;;;;;;;;;;;;;;;20.26;37.82;95364.28;10430412;28;1911;-55
2022/11/28 21:08:06;;;;;;;;;;;;;;;20.09;36.96;95367.31;10426487;28;1976;-53
2022/11/28 21:13:06;;;;;;;;;;;;;;;20.12;37.76;95363.34;10436199;28;1965;-54
2022/11/28 21:18:07;;;;;;;;;;;;;;;20.14;36.76;95359.38;10436465;28;1952;-55
2022/11/28 21:23:09;;;;;;;;;;;;;;;20.06;37.66;95360.00;10434014;28;2106;-53
2022/11/28 21:28:09;;;;;;;;;;;;;;;20.04;37.55;95363.97;10433142;28;1981;-52
2022/11/28 21:33:10;;;;;;;;;;;;;;;20.01;37.73;95361.91;10432572;28;1993;-53
2022/11/28 21:38:10;;;;;;;;;;;;;;;20.00;37.52;95365.59;10443775;28;1990;-54
2022/11/28 21:43:11;;;;;;;;;;;;;;;19.95;37.54;95363.78;10450675;28;1906;-52
2022/11/28 21:48:11;;;;;;;;;;;;;;;19.93;37.78;95362.50;10451055;28;1918;-54
2022/11/28 21:53:12;;;;;;;;;;;;;;;19.92;37.74;95363.56;10453691;28;1786;-49
2022/11/28 21:58:12;;;;;;;;;;;;;;;19.83;37.89;95366.00;10437927;28;1978;-54
2022/11/28 22:03:13;;;;;;;;;;;;;;;19.85;37.79;95363.88;10442842;28;1951;-54
2022/11/28 22:08:13;;;;;;;;;;;;;;;19.80;37.59;95363.94;10444328;28;2061;-51
2022/11/28 22:13:14;;;;;;;;;;;;;;;19.76;37.61;95362.94;10438355;28;1973;-50
2022/11/28 22:18:14;;;;;;;;;;;;;;;19.74;37.87;95364.28;10444194;28;1959;-53
2022/11/28 22:23:14;;;;;;;;;;;;;;;19.73;37.97;95370.56;10441465;28;2041;-51
2022/11/28 22:28:14;;;;;;;;;;;;;;;19.68;37.86;95373.28;10436836;28;1981;-53
2022/11/28 22:33:15;;;;;;;;;;;;;;;19.66;37.86;95370.91;10442852;28;1997;-51
2022/11/28 22:38:15;;;;;;;;;;;;;;;19.64;38.00;95375.66;10442027;28;2077;-52
2022/11/28 22:43:15;;;;;;;;;;;;;;;19.60;37.90;95366.75;10435819;28;1974;-53
2022/11/28 22:48:16;;;;;;;;;;;;;;;19.55;38.13;95374.69;10426660;28;1958;-51
2022/11/28 22:53:16;;;;;;;;;;;;;;;19.55;38.00;95368.63;10434900;28;1948;-51
2022/11/28 22:58:16;;;;;;;;;;;;;;;19.52;38.13;95369.19;10445043;28;1943;-50
2022/11/28 23:03:17;;;;;;;;;;;;;;;19.52;38.15;95366.53;10423889;28;1914;-53
2022/11/28 23:08:17;;;;;;;;;;;;;;;19.49;37.85;95376.56;10412154;28;1961;-52
2022/11/28 23:13:17;;;;;;;;;;;;;;;19.45;38.22;95357.13;10425404;28;2128;-50
2022/11/28 23:18:17;;;;;;;;;;;;;;;19.43;38.13;95361.13;10430116;28;1921;-50
2022/11/28 23:23:18;;;;;;;;;;;;;;;19.39;38.30;95363.50;10418234;28;2121;-51
2022/11/28 23:28:18;;;;;;;;;;;;;;;19.40;38.28;95356.41;10433106;28;2000;-51
2022/11/28 23:33:18;;;;;;;;;;;;;;;19.38;38.18;95361.16;10424752;28;2017;-51
2022/11/28 23:38:19;;;;;;;;;;;;;;;19.34;38.27;95366.19;10424772;28;2015;-50
2022/11/28 23:43:19;;;;;;;;;;;;;;;19.34;38.25;95363.56;10431035;28;1985;-51
2022/11/28 23:48:19;;;;;;;;;;;;;;;19.32;38.27;95370.09;10426858;28;2010;-54
2022/11/28 23:53:20;;;;;;;;;;;;;;;19.30;38.29;95362.50;10431346;28;1973;-51
2022/11/28 23:58:20;;;;;;;;;;;;;;;19.29;38.27;95368.81;10431147;28;2059;-52
